createdAt,value
2016-11-23T00:00:20.700Z,86.88
2016-11-23T00:01:35.819Z,86.69
2016-11-23T00:02:52.649Z,86.32
2016-11-23T00:04:09.755Z,86.79
2016-11-23T00:05:25.260Z,87.36
2016-11-23T00:06:41.438Z,87.46
2016-11-23T00:07:56.394Z,87.36
2016-11-23T00:09:11.065Z,87.36
2016-11-23T00:10:27.114Z,87.65
2016-11-23T00:11:43.628Z,87.65
2016-11-23T00:12:59.683Z,87.74
2016-11-23T00:14:14.946Z,88.12
2016-11-23T00:15:31.659Z,88.22
2016-11-23T00:16:48.339Z,87.93
2016-11-23T00:18:03.035Z,88.03
2016-11-23T00:19:19.321Z,87.93
2016-11-23T00:20:35.932Z,88.31
2016-11-23T00:21:52.398Z,88.7
2016-11-23T00:23:07.016Z,88.31
2016-11-23T00:24:22.038Z,88.6
2016-11-23T00:25:37.214Z,88.98
2016-11-23T00:26:52.012Z,88.7
2016-11-23T00:28:06.681Z,89.13
2016-11-23T00:29:21.904Z,88.84
2016-11-23T00:30:37.083Z,89.41
2016-11-23T00:31:52.994Z,88.93
2016-11-23T00:33:05.805Z,89.03
2016-11-23T00:34:19.278Z,89.36
2016-11-23T00:35:32.419Z,89.26
2016-11-23T00:36:49.271Z,89.07
2016-11-23T00:38:04.484Z,88.89
2016-11-23T00:39:19.088Z,88.84
2016-11-23T00:40:36.070Z,88.7
2016-11-23T00:41:52.606Z,89.03
2016-11-23T00:43:06.995Z,89.32
2016-11-23T00:44:22.163Z,88.84
2016-11-23T00:45:34.145Z,89.75
2016-11-23T00:46:48.884Z,89.32
2016-11-23T00:48:04.194Z,89.41
2016-11-23T00:49:18.704Z,90.17
2016-11-23T00:50:33.876Z,89.41
2016-11-23T00:51:48.147Z,89.98
2016-11-23T00:53:02.984Z,89.79
2016-11-23T00:54:19.690Z,89.41
2016-11-23T00:55:33.393Z,89.7
2016-11-23T00:56:48.242Z,89.79
2016-11-23T00:58:03.750Z,89.79
2016-11-23T00:59:20.610Z,89.7
2016-11-23T01:00:35.868Z,89.75
2016-11-23T01:01:51.089Z,89.7
2016-11-23T01:03:07.336Z,90.17
2016-11-23T01:04:21.615Z,89.32
2016-11-23T01:05:37.375Z,89.61
2016-11-23T01:06:54.345Z,89.98
2016-11-23T01:08:09.607Z,89.75
2016-11-23T01:09:25.987Z,89.26
2016-11-23T01:10:42.128Z,89.26
2016-11-23T01:11:55.355Z,89.46
2016-11-23T01:13:10.107Z,89.84
2016-11-23T01:14:27.248Z,88.98
2016-11-23T01:15:42.325Z,89.26
2016-11-23T01:16:56.986Z,88.7
2016-11-23T01:18:12.926Z,88.7
2016-11-23T01:19:29.408Z,89.07
2016-11-23T01:20:44.811Z,89.26
2016-11-23T01:22:00.085Z,88.7
2016-11-23T01:23:12.033Z,88.7
2016-11-23T01:24:25.234Z,88.98
2016-11-23T01:25:42.021Z,88.98
2016-11-23T01:26:59.120Z,88.79
2016-11-23T01:28:12.610Z,89.46
2016-11-23T01:29:28.372Z,89.26
2016-11-23T01:30:44.254Z,89.17
2016-11-23T01:31:58.738Z,88.89
2016-11-23T01:33:15.099Z,89.17
2016-11-23T01:34:28.694Z,89.46
2016-11-23T01:35:43.519Z,89.36
2016-11-23T01:36:55.596Z,88.89
2016-11-23T01:38:10.190Z,89.46
2016-11-23T01:39:25.663Z,88.98
2016-11-23T01:40:42.230Z,88.98
2016-11-23T01:41:56.812Z,89.17
2016-11-23T01:43:09.051Z,89.17
2016-11-23T01:44:24.293Z,88.98
2016-11-23T01:45:39.225Z,88.98
2016-11-23T01:46:56.012Z,89.46
2016-11-23T01:48:09.221Z,89.46
2016-11-23T01:49:22.820Z,89.46
2016-11-23T01:50:36.440Z,89.46
2016-11-23T01:51:52.086Z,89.55
2016-11-23T01:53:07.755Z,89.55
2016-11-23T01:54:22.794Z,89.46
2016-11-23T01:55:37.313Z,89.46
2016-11-23T01:56:53.712Z,89.46
2016-11-23T01:58:07.340Z,88.89
2016-11-23T01:59:20.831Z,89.17
2016-11-23T02:00:34.166Z,89.17
2016-11-23T02:01:47.302Z,89.17
2016-11-23T02:03:00.405Z,89.36
2016-11-23T02:04:14.762Z,88.79
2016-11-23T02:05:30.234Z,88.89
2016-11-23T02:06:45.940Z,88.89
2016-11-23T02:07:57.851Z,88.89
2016-11-23T02:09:12.569Z,88.98
2016-11-23T02:10:27.477Z,88.51
2016-11-23T02:11:43.926Z,88.89
2016-11-23T02:12:56.628Z,89.07
2016-11-23T02:14:13.040Z,89.07
2016-11-23T02:15:27.363Z,88.89
2016-11-23T02:16:41.301Z,88.89
2016-11-23T02:17:57.047Z,88.79
2016-11-23T02:19:12.022Z,88.89
2016-11-23T02:20:26.300Z,88.79
2016-11-23T02:21:42.380Z,88.79
2016-11-23T02:22:53.840Z,88.79
2016-11-23T02:24:06.830Z,88.7
2016-11-23T02:25:22.315Z,88.89
2016-11-23T02:26:38.391Z,89.26
2016-11-23T02:27:53.580Z,88.98
2016-11-23T02:29:05.495Z,89.07
2016-11-23T02:30:20.173Z,89.36
2016-11-23T02:31:35.035Z,88.89
2016-11-23T02:32:51.680Z,89.46
2016-11-23T02:34:06.619Z,89.36
2016-11-23T02:35:23.154Z,89.46
2016-11-23T02:36:36.733Z,88.7
2016-11-23T02:37:51.824Z,88.89
2016-11-23T02:39:07.803Z,89.26
2016-11-23T02:40:22.405Z,89.17
2016-11-23T02:41:39.115Z,89.17
2016-11-23T02:42:53.863Z,89.26
2016-11-23T02:44:08.705Z,89.17
2016-11-23T02:45:23.871Z,89.17
2016-11-23T02:46:39.011Z,89.26
2016-11-23T02:47:53.810Z,89.17
2016-11-23T02:49:08.610Z,89.17
2016-11-23T02:50:24.152Z,89.17
2016-11-23T02:51:40.465Z,89.17
2016-11-23T02:52:53.494Z,89.17
2016-11-23T02:54:06.498Z,89.17
2016-11-23T02:55:19.877Z,88.98
2016-11-23T02:56:34.786Z,88.89
2016-11-23T02:57:51.067Z,88.98
2016-11-23T02:59:06.174Z,88.89
2016-11-23T03:00:21.295Z,88.98
2016-11-23T03:01:36.354Z,89.46
2016-11-23T03:02:51.854Z,89.46
2016-11-23T03:04:05.719Z,89.46
2016-11-23T03:05:22.287Z,89.46
2016-11-23T03:06:36.979Z,89.26
2016-11-23T03:07:49.959Z,89.36
2016-11-23T03:09:05.235Z,89.46
2016-11-23T03:10:21.129Z,89.26
2016-11-23T03:11:33.145Z,89.55
2016-11-23T03:12:47.122Z,89.94
2016-11-23T03:13:58.737Z,89.84
2016-11-23T03:15:10.770Z,89.98
2016-11-23T03:16:24.058Z,89.89
2016-11-23T03:17:39.712Z,89.98
2016-11-23T03:18:56.080Z,89.89
2016-11-23T03:20:10.491Z,90.75
2016-11-23T03:21:26.004Z,90.56
2016-11-23T03:22:39.160Z,90.94
2016-11-23T03:23:56.531Z,90.75
2016-11-23T03:25:11.176Z,91.03
2016-11-23T03:26:25.931Z,90.94
2016-11-23T03:27:41.931Z,91.03
2016-11-23T03:28:57.161Z,91.31
2016-11-23T03:30:11.895Z,91.13
2016-11-23T03:31:26.179Z,91.31
2016-11-23T03:32:42.396Z,91.13
2016-11-23T03:33:55.947Z,91.41
2016-11-23T03:35:12.267Z,91.31
2016-11-23T03:36:24.820Z,91.03
2016-11-23T03:37:37.886Z,91.31
2016-11-23T03:38:53.389Z,91.13
2016-11-23T03:40:05.069Z,91.13
2016-11-23T03:41:17.876Z,91.22
2016-11-23T03:42:32.434Z,91.51
2016-11-23T03:43:47.638Z,90.94
2016-11-23T03:45:02.809Z,91.13
2016-11-23T03:46:16.412Z,90.56
2016-11-23T03:47:30.631Z,91.03
2016-11-23T03:48:44.134Z,90.75
2016-11-23T03:50:00.245Z,90.65
2016-11-23T03:51:15.177Z,90.75
2016-11-23T03:52:28.566Z,90.46
2016-11-23T03:53:43.492Z,90.65
2016-11-23T03:54:59.461Z,90.7
2016-11-23T03:56:14.277Z,90.75
2016-11-23T03:57:30.344Z,90.27
2016-11-23T03:58:43.424Z,90.17
2016-11-23T03:59:59.973Z,90.08
2016-11-23T04:01:13.471Z,89.98
2016-11-23T04:02:26.467Z,89.89
2016-11-23T04:03:39.676Z,90.27
2016-11-23T04:04:55.975Z,90.22
2016-11-23T04:06:10.378Z,90.31
2016-11-23T04:07:24.918Z,89.84
2016-11-23T04:08:39.761Z,89.75
2016-11-23T04:09:55.647Z,90.03
2016-11-23T04:11:11.154Z,89.36
2016-11-23T04:12:26.490Z,89.89
2016-11-23T04:13:41.120Z,89.79
2016-11-23T04:14:57.191Z,89.46
2016-11-23T04:16:10.087Z,90.03
2016-11-23T04:17:25.014Z,89.75
2016-11-23T04:18:41.708Z,90.22
2016-11-23T04:19:56.426Z,90.17
2016-11-23T04:21:09.496Z,89.75
2016-11-23T04:22:22.302Z,89.65
2016-11-23T04:23:38.429Z,90.03
2016-11-23T04:24:53.332Z,90.12
2016-11-23T04:26:06.703Z,90.08
2016-11-23T04:27:22.360Z,89.79
2016-11-23T04:28:34.284Z,89.7
2016-11-23T04:29:49.925Z,89.79
2016-11-23T04:31:06.401Z,90.08
2016-11-23T04:32:19.166Z,90.17
2016-11-23T04:33:34.225Z,89.89
2016-11-23T04:34:46.091Z,90.08
2016-11-23T04:36:00.660Z,90.17
2016-11-23T04:37:13.787Z,90.27
2016-11-23T04:38:30.128Z,89.98
2016-11-23T04:39:44.855Z,90.17
2016-11-23T04:41:01.024Z,89.94
2016-11-23T04:42:16.207Z,89.94
2016-11-23T04:43:28.455Z,90.08
2016-11-23T04:44:44.633Z,89.98
2016-11-23T04:45:59.392Z,90.17
2016-11-23T04:47:15.113Z,89.79
2016-11-23T04:48:28.928Z,90.17
2016-11-23T04:49:43.989Z,89.89
2016-11-23T04:50:59.908Z,90.46
2016-11-23T04:52:14.177Z,90.94
2016-11-23T04:53:29.086Z,90.17
2016-11-23T04:54:45.396Z,90.84
2016-11-23T04:55:58.366Z,90.94
2016-11-23T04:57:11.370Z,90.56
2016-11-23T04:58:25.783Z,90.65
2016-11-23T04:59:37.696Z,90.36
2016-11-23T05:00:50.739Z,90.65
2016-11-23T05:02:05.547Z,90.36
2016-11-23T05:03:22.645Z,90.75
2016-11-23T05:04:37.858Z,90.65
2016-11-23T05:05:51.154Z,90.36
2016-11-23T05:07:06.650Z,90.56
2016-11-23T05:08:21.325Z,90.94
2016-11-23T05:09:34.749Z,91.03
2016-11-23T05:10:50.530Z,91.03
2016-11-23T05:12:06.595Z,90.84
2016-11-23T05:13:22.510Z,90.65
2016-11-23T05:14:37.990Z,91.22
2016-11-23T05:15:54.117Z,91.03
2016-11-23T05:17:09.404Z,91.27
2016-11-23T05:18:24.545Z,92.13
2016-11-23T05:19:40.480Z,92.13
2016-11-23T05:20:55.129Z,91.56
2016-11-23T05:22:09.335Z,91.56
2016-11-23T05:23:22.563Z,91.56
2016-11-23T05:24:39.096Z,91.75
2016-11-23T05:25:53.785Z,91.84
2016-11-23T05:27:09.260Z,91.65
2016-11-23T05:28:23.923Z,91.94
2016-11-23T05:29:37.454Z,92.22
2016-11-23T05:30:50.530Z,92.22
2016-11-23T05:32:06.559Z,92.41
2016-11-23T05:33:19.945Z,92.6
2016-11-23T05:34:35.116Z,92.51
2016-11-23T05:35:50.652Z,92.51
2016-11-23T05:37:07.126Z,92.46
2016-11-23T05:38:23.695Z,93.13
2016-11-23T05:39:40.447Z,93.04
2016-11-23T05:40:56.746Z,93.41
2016-11-23T05:42:09.936Z,93.98
2016-11-23T05:43:24.752Z,93.79
2016-11-23T05:44:39.173Z,93.7
2016-11-23T05:45:52.306Z,93.89
2016-11-23T05:47:09.127Z,94.56
2016-11-23T05:48:25.168Z,94.37
2016-11-23T05:49:41.488Z,94.08
2016-11-23T05:50:55.944Z,94.93
2016-11-23T05:52:11.981Z,94.74
2016-11-23T05:53:25.192Z,94.65
2016-11-23T05:54:37.946Z,94.46
2016-11-23T05:55:53.668Z,94.93
2016-11-23T05:57:05.691Z,94.84
2016-11-23T05:58:21.002Z,94.93
2016-11-23T05:59:36.060Z,95.32
2016-11-23T06:00:50.897Z,95.22
2016-11-23T06:02:07.228Z,94.93
2016-11-23T06:03:23.111Z,95.12
2016-11-23T06:04:39.442Z,95.03
2016-11-23T06:05:51.118Z,95.7
2016-11-23T06:07:05.907Z,95.32
2016-11-23T06:08:22.787Z,95.32
2016-11-23T06:09:39.107Z,95.51
2016-11-23T06:10:53.920Z,95.22
2016-11-23T06:12:08.676Z,95.51
2016-11-23T06:13:25.566Z,95.22
2016-11-23T06:14:42.326Z,95.41
2016-11-23T06:15:59.254Z,95.7
2016-11-23T06:17:14.609Z,95.79
2016-11-23T06:18:30.496Z,95.7
2016-11-23T06:19:42.024Z,95.89
2016-11-23T06:20:56.779Z,95.89
2016-11-23T06:22:11.613Z,95.51
2016-11-23T06:23:27.512Z,95.51
2016-11-23T06:24:41.134Z,95.51
2016-11-23T06:25:56.055Z,95.6
2016-11-23T06:27:12.349Z,95.51
2016-11-23T06:28:25.777Z,95.51
2016-11-23T06:29:41.815Z,95.41
2016-11-23T06:30:56.824Z,95.32
2016-11-23T06:32:08.843Z,95.12
2016-11-23T06:33:24.359Z,95.22
2016-11-23T06:34:40.799Z,95.12
2016-11-23T06:35:56.434Z,95.41
2016-11-23T06:37:12.852Z,95.41
2016-11-23T06:38:27.452Z,95.6
2016-11-23T06:39:41.867Z,95.89
2016-11-23T06:40:57.694Z,95.51
2016-11-23T06:42:12.238Z,95.32
2016-11-23T06:43:23.936Z,95.51
2016-11-23T06:44:39.159Z,95.51
2016-11-23T06:45:55.178Z,95.51
2016-11-23T06:47:08.635Z,95.22
2016-11-23T06:48:25.159Z,95.6
2016-11-23T06:49:39.832Z,95.22
2016-11-23T06:50:54.938Z,95.41
2016-11-23T06:52:11.768Z,95.41
2016-11-23T06:53:27.911Z,95.51
2016-11-23T06:54:44.356Z,95.41
2016-11-23T06:55:57.328Z,95.51
2016-11-23T06:57:11.271Z,95.89
2016-11-23T06:58:25.805Z,95.03
2016-11-23T06:59:40.146Z,95.22
2016-11-23T07:00:56.847Z,95.12
2016-11-23T07:02:13.118Z,95.22
2016-11-23T07:03:28.247Z,95.32
2016-11-23T07:04:44.542Z,94.93
2016-11-23T07:06:01.261Z,95.03
2016-11-23T07:07:16.334Z,95.12
2016-11-23T07:08:32.533Z,95.22
2016-11-23T07:09:47.236Z,94.93
2016-11-23T07:11:03.760Z,94.56
2016-11-23T07:12:18.164Z,94.65
2016-11-23T07:13:34.771Z,94.93
2016-11-23T07:14:48.215Z,94.65
2016-11-23T07:16:05.036Z,94.56
2016-11-23T07:17:21.129Z,94.84
2016-11-23T07:18:34.688Z,94.74
2016-11-23T07:19:51.113Z,94.74
2016-11-23T07:21:05.556Z,94.93
2016-11-23T07:22:21.322Z,94.93
2016-11-23T07:23:35.082Z,94.74
2016-11-23T07:24:48.333Z,94.65
2016-11-23T07:26:05.228Z,95.22
2016-11-23T07:27:20.257Z,95.22
2016-11-23T07:28:36.571Z,95.32
2016-11-23T07:29:51.653Z,95.32
2016-11-23T07:31:07.834Z,95.32
2016-11-23T07:32:23.591Z,95.32
2016-11-23T07:33:40.334Z,95.22
2016-11-23T07:34:53.551Z,95.32
2016-11-23T07:36:09.118Z,95.22
2016-11-23T07:37:23.551Z,95.32
2016-11-23T07:38:36.777Z,95.22
2016-11-23T07:39:53.148Z,95.22
2016-11-23T07:41:09.293Z,95.41
2016-11-23T07:42:26.235Z,95.22
2016-11-23T07:43:40.915Z,94.93
2016-11-23T07:44:54.296Z,95.22
2016-11-23T07:46:10.207Z,94.93
2016-11-23T07:47:25.016Z,95.32
2016-11-23T07:48:41.365Z,95.12
2016-11-23T07:49:57.514Z,94.65
2016-11-23T07:51:08.949Z,94.56
2016-11-23T07:52:24.689Z,94.42
2016-11-23T07:53:39.777Z,94.42
2016-11-23T07:54:55.287Z,94.6
2016-11-23T07:56:10.554Z,94.7
2016-11-23T07:57:26.445Z,94.79
2016-11-23T07:58:42.088Z,94.32
2016-11-23T07:59:58.436Z,94.03
2016-11-23T08:01:13.097Z,94.51
2016-11-23T08:02:27.818Z,94.6
2016-11-23T08:03:42.658Z,94.13
2016-11-23T08:04:58.570Z,93.84
2016-11-23T08:06:11.764Z,93.74
2016-11-23T08:07:27.038Z,93.74
2016-11-23T08:08:43.403Z,93.27
2016-11-23T08:09:59.974Z,93.65
2016-11-23T08:11:13.136Z,93.27
2016-11-23T08:12:26.716Z,93.08
2016-11-23T08:13:42.842Z,93.08
2016-11-23T08:14:56.516Z,92.99
2016-11-23T08:16:13.202Z,93.27
2016-11-23T08:17:28.384Z,92.89
2016-11-23T08:18:40.153Z,92.79
2016-11-23T08:19:54.651Z,92.41
2016-11-23T08:21:09.267Z,92.6
2016-11-23T08:22:25.441Z,92.22
2016-11-23T08:23:38.619Z,92.03
2016-11-23T08:24:53.709Z,92.22
2016-11-23T08:26:08.755Z,91.84
2016-11-23T08:27:22.237Z,91.89
2016-11-23T08:28:36.597Z,91.6
2016-11-23T08:29:51.755Z,91.37
2016-11-23T08:31:03.545Z,91.13
2016-11-23T08:32:20.081Z,90.65
2016-11-23T08:33:36.659Z,90.46
2016-11-23T08:34:51.095Z,90.56
2016-11-23T08:36:06.773Z,89.98
2016-11-23T08:37:21.656Z,90.17
2016-11-23T08:38:36.067Z,89.7
2016-11-23T08:39:49.603Z,89.89
2016-11-23T08:41:04.694Z,89.98
2016-11-23T08:42:18.304Z,89.32
2016-11-23T08:43:31.683Z,89.98
2016-11-23T08:44:46.812Z,89.51
2016-11-23T08:46:02.037Z,89.41
2016-11-23T08:47:15.490Z,89.13
2016-11-23T08:48:30.768Z,89.03
2016-11-23T08:49:47.437Z,88.27
2016-11-23T08:51:03.509Z,88.75
2016-11-23T08:52:18.014Z,88.46
2016-11-23T08:53:34.176Z,88.37
2016-11-23T08:54:47.181Z,88.08
2016-11-23T08:56:02.970Z,87.84
2016-11-23T08:57:17.542Z,88.08
2016-11-23T08:58:33.117Z,87.55
2016-11-23T08:59:49.266Z,87.23
2016-11-23T09:01:01.030Z,87.41
2016-11-23T09:02:15.475Z,87.23
2016-11-23T09:03:30.388Z,86.6
2016-11-23T09:04:45.456Z,86.98
2016-11-23T09:05:58.835Z,86.75
2016-11-23T09:07:13.645Z,87.17
2016-11-23T09:08:26.773Z,86.6
2016-11-23T09:09:42.339Z,86.41
2016-11-23T09:10:57.281Z,86.41
2016-11-23T09:12:13.407Z,86.6
2016-11-23T09:13:29.954Z,86.51
2016-11-23T09:14:45.269Z,86.32
2016-11-23T09:16:02.142Z,86.22
2016-11-23T09:17:15.776Z,86.51
2016-11-23T09:18:30.882Z,86.22
2016-11-23T09:19:45.743Z,86.12
2016-11-23T09:21:02.530Z,85.74
2016-11-23T09:22:15.462Z,85.93
2016-11-23T09:23:31.496Z,85.36
2016-11-23T09:24:47.937Z,85.46
2016-11-23T09:26:03.067Z,84.64
2016-11-23T09:27:18.205Z,85.02
2016-11-23T09:28:30.054Z,84.92
2016-11-23T09:29:44.735Z,84.64
2016-11-23T09:30:57.947Z,84.16
2016-11-23T09:32:14.633Z,83.31
2016-11-23T09:33:29.303Z,83.21
2016-11-23T09:34:45.209Z,83.21
2016-11-23T09:35:57.087Z,83.21
2016-11-23T09:37:11.526Z,83.21
2016-11-23T09:38:27.604Z,82.73
2016-11-23T09:39:42.044Z,83.12
2016-11-23T09:40:58.617Z,83.12
2016-11-23T09:42:10.868Z,83.02
2016-11-23T09:43:25.840Z,83.21
2016-11-23T09:44:42.520Z,82.45
2016-11-23T09:45:59.210Z,81.54
2016-11-23T09:47:12.380Z,81.63
2016-11-23T09:48:25.819Z,81.73
2016-11-23T09:49:40.294Z,81.63
2016-11-23T09:50:54.975Z,81.92
2016-11-23T09:52:10.204Z,80.96
2016-11-23T09:53:25.725Z,80.87
2016-11-23T09:54:41.874Z,80.49
2016-11-23T09:55:57.762Z,80.58
2016-11-23T09:57:14.282Z,79.72
2016-11-23T09:58:30.406Z,79.72
2016-11-23T09:59:46.302Z,79.53
2016-11-23T10:01:00.901Z,80.01
2016-11-23T10:02:16.785Z,80.11
2016-11-23T10:03:29.760Z,80.3
2016-11-23T10:04:44.190Z,79.91
2016-11-23T10:05:58.799Z,80.33
2016-11-23T10:07:13.275Z,79.86
2016-11-23T10:08:30.030Z,79.28
2016-11-23T10:09:44.693Z,78.91
2016-11-23T10:11:00.948Z,78.43
2016-11-23T10:12:13.921Z,78.43
2016-11-23T10:13:29.028Z,78.52
2016-11-23T10:14:43.549Z,78.43
2016-11-23T10:15:59.194Z,78.23
2016-11-23T10:17:15.242Z,78.14
2016-11-23T10:18:29.925Z,77.47
2016-11-23T10:19:44.948Z,77.47
2016-11-23T10:21:00.868Z,78.56
2016-11-23T10:22:14.312Z,78.05
2016-11-23T10:23:27.744Z,78.18
2016-11-23T10:24:44.318Z,78.18
2016-11-23T10:26:00.941Z,78.33
2016-11-23T10:27:14.387Z,78.18
2016-11-23T10:28:27.481Z,76.94
2016-11-23T10:29:41.007Z,78.18
2016-11-23T10:30:54.774Z,77.61
2016-11-23T10:32:08.157Z,77.42
2016-11-23T10:33:21.765Z,76.31
2016-11-23T10:34:37.825Z,76.31
2016-11-23T10:35:51.684Z,75.07
2016-11-23T10:37:07.982Z,75.74
2016-11-23T10:38:22.256Z,74.34
2016-11-23T10:39:35.719Z,73.96
2016-11-23T10:40:49.357Z,73.77
2016-11-23T10:42:06.093Z,73.19
2016-11-23T10:43:19.304Z,72.72
2016-11-23T10:44:35.451Z,71.51
2016-11-23T10:45:50.990Z,70.94
2016-11-23T10:47:05.541Z,71.03
2016-11-23T10:48:21.636Z,71.22
2016-11-23T10:49:36.858Z,71.32
2016-11-23T10:50:53.427Z,71.8
2016-11-23T10:52:08.258Z,70.65
2016-11-23T10:53:22.690Z,71.7
2016-11-23T10:54:36.245Z,71.61
2016-11-23T10:55:52.778Z,70.75
2016-11-23T10:57:06.556Z,70.46
2016-11-23T10:58:21.232Z,69.98
2016-11-23T10:59:35.354Z,69.41
2016-11-23T11:00:51.643Z,69.21
2016-11-23T11:02:05.868Z,70.27
2016-11-23T11:03:20.781Z,70.36
2016-11-23T11:04:34.093Z,70.71
2016-11-23T11:05:50.225Z,71.57
2016-11-23T11:07:06.749Z,71.19
2016-11-23T11:08:23.026Z,71.86
2016-11-23T11:09:36.482Z,73.1
2016-11-23T11:10:51.185Z,73.19
2016-11-23T11:12:05.872Z,72.81
2016-11-23T11:13:22.313Z,72.72
2016-11-23T11:14:39.221Z,73.1
2016-11-23T11:15:52.581Z,72.62
2016-11-23T11:17:07.902Z,72.14
2016-11-23T11:18:21.403Z,72.62
2016-11-23T11:19:36.755Z,72.81
2016-11-23T11:20:51.175Z,72.43
2016-11-23T11:22:08.071Z,71.86
2016-11-23T11:23:23.154Z,72.24
2016-11-23T11:24:39.203Z,72.81
2016-11-23T11:25:55.518Z,72.24
2016-11-23T11:27:10.559Z,71.67
2016-11-23T11:28:25.814Z,70.71
2016-11-23T11:29:40.186Z,70.52
2016-11-23T11:30:56.902Z,71.19
2016-11-23T11:32:08.760Z,70.71
2016-11-23T11:33:24.670Z,71.09
2016-11-23T11:34:40.874Z,70.94
2016-11-23T11:35:56.203Z,70.46
2016-11-23T11:37:12.873Z,70.36
2016-11-23T11:38:28.983Z,69.98
2016-11-23T11:39:42.011Z,69.7
2016-11-23T11:40:56.545Z,69.98
2016-11-23T11:42:09.771Z,69.12
2016-11-23T11:43:25.268Z,68.74
2016-11-23T11:44:41.587Z,69.12
2016-11-23T11:45:58.141Z,68.84
2016-11-23T11:47:12.865Z,69.21
2016-11-23T11:48:27.288Z,69.89
2016-11-23T11:49:40.407Z,69.79
2016-11-23T11:50:55.459Z,69.98
2016-11-23T11:52:10.525Z,69.95
2016-11-23T11:53:23.677Z,70.14
2016-11-23T11:54:38.369Z,70.14
2016-11-23T11:55:53.052Z,70.52
2016-11-23T11:57:29.784Z,71.28
2016-11-23T11:58:44.051Z,70.42
2016-11-23T12:00:00.024Z,70.33
2016-11-23T12:01:14.873Z,70.23
2016-11-23T12:02:30.828Z,70.42
2016-11-23T12:03:44.281Z,71.38
2016-11-23T12:04:58.839Z,70.71
2016-11-23T12:06:13.554Z,70.71
2016-11-23T12:07:30.294Z,70.9
2016-11-23T12:08:43.516Z,70.71
2016-11-23T12:09:58.723Z,70.33
2016-11-23T12:11:12.105Z,70.33
2016-11-23T12:12:28.852Z,70.04
2016-11-23T12:13:44.633Z,70.33
2016-11-23T12:14:58.102Z,70.33
2016-11-23T12:16:12.551Z,70.52
2016-11-23T12:17:27.960Z,70.33
2016-11-23T12:18:41.599Z,70.46
2016-11-23T12:19:54.976Z,70.42
2016-11-23T12:21:08.606Z,70.56
2016-11-23T12:22:21.660Z,70.46
2016-11-23T12:23:38.727Z,70.33
2016-11-23T12:24:55.447Z,70.71
2016-11-23T12:26:10.551Z,70.71
2016-11-23T12:27:24.179Z,70.71
2016-11-23T12:28:40.706Z,71.19
2016-11-23T12:29:52.340Z,71.28
2016-11-23T12:31:08.237Z,70.81
2016-11-23T12:32:23.267Z,70.81
2016-11-23T12:33:36.918Z,70.71
2016-11-23T12:34:51.222Z,71
2016-11-23T12:36:06.161Z,71
2016-11-23T12:37:22.923Z,70.81
2016-11-23T12:38:39.296Z,70.52
2016-11-23T12:39:54.455Z,70.52
2016-11-23T12:41:10.726Z,70.9
2016-11-23T12:42:27.289Z,70.33
2016-11-23T12:43:42.478Z,70.81
2016-11-23T12:44:56.354Z,71.28
2016-11-23T12:46:12.752Z,71.09
2016-11-23T12:47:27.570Z,71.28
2016-11-23T12:48:42.428Z,71.19
2016-11-23T12:49:54.017Z,70.42
2016-11-23T12:51:10.366Z,70.71
2016-11-23T12:52:23.235Z,70.71
2016-11-23T12:53:36.873Z,70.33
2016-11-23T12:54:52.851Z,71
2016-11-23T12:56:07.699Z,70.81
2016-11-23T12:57:23.182Z,70.81
2016-11-23T12:58:39.393Z,70.52
2016-11-23T12:59:54.223Z,70.71
2016-11-23T13:01:09.492Z,70.61
2016-11-23T13:02:25.566Z,71.09
2016-11-23T13:03:39.049Z,70.71
2016-11-23T13:04:51.784Z,70.9
2016-11-23T13:06:08.480Z,70.23
2016-11-23T13:07:20.661Z,71.38
2016-11-23T13:08:34.171Z,70.61
2016-11-23T13:09:47.709Z,71.28
2016-11-23T13:11:01.258Z,70.61
2016-11-23T13:12:15.064Z,70.81
2016-11-23T13:13:31.795Z,71
2016-11-23T13:14:47.945Z,70.9
2016-11-23T13:15:59.703Z,71.28
2016-11-23T13:17:12.688Z,70.71
2016-11-23T13:18:29.659Z,70.71
2016-11-23T13:19:42.474Z,70.71
2016-11-23T13:20:58.686Z,70.81
2016-11-23T13:22:14.446Z,70.52
2016-11-23T13:23:27.908Z,70.52
2016-11-23T13:24:43.186Z,70.04
2016-11-23T13:25:57.665Z,70.23
2016-11-23T13:27:14.020Z,69.95
2016-11-23T13:28:30.872Z,70.14
2016-11-23T13:29:45.838Z,70.14
2016-11-23T13:31:01.271Z,70.04
2016-11-23T13:32:16.116Z,70.23
2016-11-23T13:33:31.061Z,70.23
2016-11-23T13:34:45.277Z,70.71
2016-11-23T13:36:01.552Z,70.42
2016-11-23T13:37:18.090Z,70.33
2016-11-23T13:38:31.625Z,69.76
2016-11-23T13:39:44.388Z,69.95
2016-11-23T13:40:59.057Z,70.23
2016-11-23T13:42:13.799Z,70.33
2016-11-23T13:43:28.110Z,70.23
2016-11-23T13:44:44.637Z,70.71
2016-11-23T13:45:56.239Z,70.42
2016-11-23T13:47:11.553Z,71.47
2016-11-23T13:48:27.818Z,71.09
2016-11-23T13:49:44.920Z,71.63
2016-11-23T13:50:59.123Z,71.38
2016-11-23T13:52:13.943Z,71.82
2016-11-23T13:53:29.827Z,71.47
2016-11-23T13:54:44.114Z,71
2016-11-23T13:55:57.811Z,70.81
2016-11-23T13:57:08.134Z,71.15
2016-11-23T13:58:22.411Z,71.19
2016-11-23T13:59:38.916Z,71.82
2016-11-23T14:00:54.881Z,71.92
2016-11-23T14:02:11.054Z,72.58
2016-11-23T14:03:24.088Z,72.68
2016-11-23T14:04:39.146Z,72.68
2016-11-23T14:05:53.953Z,72.39
2016-11-23T14:07:09.631Z,72.68
2016-11-23T14:08:25.917Z,73.35
2016-11-23T14:09:37.782Z,73.07
2016-11-23T14:10:51.350Z,73.07
2016-11-23T14:12:04.899Z,73.25
2016-11-23T14:13:19.586Z,72.97
2016-11-23T14:14:34.627Z,73.16
2016-11-23T14:15:49.606Z,72.87
2016-11-23T14:17:04.265Z,72.49
2016-11-23T14:18:21.428Z,72.68
2016-11-23T14:19:38.129Z,72.68
2016-11-23T14:20:54.961Z,73.16
2016-11-23T14:22:11.007Z,73.35
2016-11-23T14:23:25.466Z,73.63
2016-11-23T14:24:36.946Z,73.92
2016-11-23T14:25:51.402Z,74.4
2016-11-23T14:27:04.383Z,74.21
2016-11-23T14:28:19.624Z,74.4
2016-11-23T14:29:34.041Z,74.74
2016-11-23T14:30:50.822Z,75.22
2016-11-23T14:32:07.345Z,75.22
2016-11-23T14:33:22.788Z,75.22
2016-11-23T14:34:38.863Z,75.51
2016-11-23T14:35:53.312Z,75.7
2016-11-23T14:37:07.607Z,76.08
2016-11-23T14:38:24.636Z,76.56
2016-11-23T14:39:39.126Z,76.37
2016-11-23T14:40:54.615Z,76.65
2016-11-23T14:42:10.651Z,77.03
2016-11-23T14:43:26.948Z,77.7
2016-11-23T14:44:41.555Z,77.61
2016-11-23T14:45:54.714Z,78.09
2016-11-23T14:47:09.141Z,78.28
2016-11-23T14:48:23.736Z,78.94
2016-11-23T14:49:40.065Z,78.47
2016-11-23T14:50:55.381Z,78.81
2016-11-23T14:52:11.549Z,79.04
2016-11-23T14:53:24.702Z,79.28
2016-11-23T14:54:39.493Z,79.48
2016-11-23T14:55:55.719Z,79.57
2016-11-23T14:57:12.319Z,79.52
2016-11-23T14:58:25.716Z,79.77
2016-11-23T14:59:40.398Z,79.48
2016-11-23T15:00:56.914Z,79.48
2016-11-23T15:02:11.613Z,79.77
2016-11-23T15:03:28.340Z,79.57
2016-11-23T15:04:41.823Z,79.96
2016-11-23T15:05:56.864Z,80.43
2016-11-23T15:07:10.252Z,80.43
2016-11-23T15:08:26.723Z,80.81
2016-11-23T15:09:42.010Z,80.81
2016-11-23T15:10:58.150Z,81.29
2016-11-23T15:12:14.637Z,81.48
2016-11-23T15:13:29.362Z,82.11
2016-11-23T15:14:42.329Z,82.11
2016-11-23T15:15:55.873Z,82.3
2016-11-23T15:17:10.986Z,82.68
2016-11-23T15:18:25.360Z,83.25
2016-11-23T15:19:42.717Z,83.16
2016-11-23T15:20:59.068Z,83.73
2016-11-23T15:22:14.097Z,83.83
2016-11-23T15:23:30.005Z,83.44
2016-11-23T15:24:45.524Z,83.88
2016-11-23T15:25:58.799Z,84.3
2016-11-23T15:27:12.348Z,84.16
2016-11-23T15:28:27.207Z,84.64
2016-11-23T15:29:42.307Z,85.02
2016-11-23T15:30:58.781Z,84.92
2016-11-23T15:32:14.051Z,85.41
2016-11-23T15:33:29.022Z,85.21
2016-11-23T15:34:43.722Z,85.69
2016-11-23T15:36:01.034Z,86.16
2016-11-23T15:37:14.098Z,86.16
2016-11-23T15:38:30.958Z,86.45
2016-11-23T15:39:45.215Z,86.51
2016-11-23T15:41:00.725Z,86.83
2016-11-23T15:42:14.939Z,86.88
2016-11-23T15:43:30.023Z,86.79
2016-11-23T15:44:44.852Z,87.36
2016-11-23T15:45:59.582Z,87.36
2016-11-23T15:47:16.440Z,87.46
2016-11-23T15:48:31.953Z,87.65
2016-11-23T15:49:47.930Z,87.84
2016-11-23T15:51:04.159Z,87.65
2016-11-23T15:52:17.231Z,88.31
2016-11-23T15:53:32.326Z,87.93
2016-11-23T15:54:47.088Z,88.03
2016-11-23T15:56:03.114Z,88.03
2016-11-23T15:57:16.655Z,88.12
2016-11-23T15:58:31.781Z,88.31
2016-11-23T15:59:48.179Z,88.51
2016-11-23T16:01:04.739Z,88.51
2016-11-23T16:02:19.345Z,88.51
2016-11-23T16:03:36.180Z,88.7
2016-11-23T16:04:50.025Z,88.7
2016-11-23T16:06:05.158Z,88.79
2016-11-23T16:07:20.670Z,89.36